KLCH/LCH METAR and TAF weather

Enter ICAO airport designator
Station Type Date Time Source
KLCH METAR 2019/12/11 12:12 UTC NOAA

KLCH 111212Z 02011KT 10SM OVC015 06/02 A3045 RMK AO2 T00560022


Station Type Date Time Source
KLCH Decoded METAR 2019/12/11 12:12 UTC NOAA

LAKE CHARLES REGIONAL AIRPORT , LA, United States (KLCH) 30-12N 093-23W 3M
Dec 11, 2019 - 07:12 AM EST / 2019.12.11 1212 UTC
Wind: from the NNE (020 degrees) at 13 MPH (11 KT):0
Visibility: 10 mile(s):0
Sky conditions: overcast
Temperature: 42.1 F (5.6 C)
Dew Point: 36.0 F (2.2 C)
Relative Humidity: 78%
Pressure (altimeter): 30.45 in. Hg (1031 hPa)
ob: KLCH 111212Z 02011KT 10SM OVC015 06/02 A3045 RMK AO2 T00560022
cycle: 12

Station Type Date Time Source
KLCH TAF 2019/12/11 12:22 UTC NOAA

TAF KLCH 111120Z 1112/1212 03014G21KT P6SM OVC015
FM111600 04015G22KT P6SM SKC
FM112200 06011KT P6SM SKC

Example: see airport list